sensor_id;sensor_type;location;lat;lon;timestamp;pressure;altitude;pressure_sealevel;temperature;humidity
59939;BME280;45801;51.810;19.444;2023-07-20T00:01:29;98363.92;;;19.33;53.19
59939;BME280;45801;51.810;19.444;2023-07-20T00:03:56;98361.83;;;19.29;53.83
59939;BME280;45801;51.810;19.444;2023-07-20T00:06:24;98362.20;;;19.25;53.91
59939;BME280;45801;51.810;19.444;2023-07-20T00:08:51;98358.30;;;19.23;54.25
59939;BME280;45801;51.810;19.444;2023-07-20T00:11:18;98362.73;;;19.21;54.39
59939;BME280;45801;51.810;19.444;2023-07-20T00:13:44;98367.75;;;19.17;54.37
59939;BME280;45801;51.810;19.444;2023-07-20T00:16:11;98368.31;;;19.10;54.59
59939;BME280;45801;51.810;19.444;2023-07-20T00:18:37;98367.98;;;19.04;54.72
59939;BME280;45801;51.810;19.444;2023-07-20T00:21:04;98369.60;;;18.98;55.16
59939;BME280;45801;51.810;19.444;2023-07-20T00:23:30;98372.48;;;18.94;54.79
59939;BME280;45801;51.810;19.444;2023-07-20T00:25:57;98372.13;;;18.90;55.05
59939;BME280;45801;51.810;19.444;2023-07-20T00:28:23;98376.92;;;18.88;55.05
59939;BME280;45801;51.810;19.444;2023-07-20T00:30:50;98376.02;;;18.85;54.83
59939;BME280;45801;51.810;19.444;2023-07-20T00:33:17;98373.55;;;18.86;55.03
59939;BME280;45801;51.810;19.444;2023-07-20T00:35:45;98372.30;;;18.88;54.98
59939;BME280;45801;51.810;19.444;2023-07-20T00:38:12;98368.05;;;18.88;55.16
59939;BME280;45801;51.810;19.444;2023-07-20T00:40:39;98367.70;;;18.89;54.78
59939;BME280;45801;51.810;19.444;2023-07-20T00:43:07;98366.27;;;18.88;54.96
59939;BME280;45801;51.810;19.444;2023-07-20T00:45:34;98363.25;;;18.89;54.47
59939;BME280;45801;51.810;19.444;2023-07-20T00:48:04;98362.36;;;18.89;55.09
59939;BME280;45801;51.810;19.444;2023-07-20T00:50:31;98362.54;;;18.87;55.03
59939;BME280;45801;51.810;19.444;2023-07-20T00:52:59;98371.25;;;18.86;54.81
59939;BME280;45801;51.810;19.444;2023-07-20T00:55:26;98376.20;;;18.90;54.63
59939;BME280;45801;51.810;19.444;2023-07-20T00:57:53;98377.93;;;19.01;54.53
59939;BME280;45801;51.810;19.444;2023-07-20T01:00:19;98382.29;;;19.18;54.34
59939;BME280;45801;51.810;19.444;2023-07-20T01:02:46;98388.23;;;19.37;53.77
59939;BME280;45801;51.810;19.444;2023-07-20T01:05:13;98394.00;;;19.51;53.34
59939;BME280;45801;51.810;19.444;2023-07-20T01:08:00;98393.94;;;19.63;53.57
59939;BME280;45801;51.810;19.444;2023-07-20T01:10:39;98387.88;;;19.67;53.30
59939;BME280;45801;51.810;19.444;2023-07-20T01:13:09;98381.86;;;19.63;52.95
59939;BME280;45801;51.810;19.444;2023-07-20T01:15:36;98379.23;;;19.57;53.36
59939;BME280;45801;51.810;19.444;2023-07-20T01:18:03;98383.55;;;19.49;52.79
59939;BME280;45801;51.810;19.444;2023-07-20T01:20:32;98382.54;;;19.38;53.23
59939;BME280;45801;51.810;19.444;2023-07-20T01:23:31;98378.70;;;19.30;53.82
59939;BME280;45801;51.810;19.444;2023-07-20T01:26:11;98371.97;;;19.23;53.97
59939;BME280;45801;51.810;19.444;2023-07-20T01:29:17;98373.41;;;19.19;54.71
59939;BME280;45801;51.810;19.444;2023-07-20T01:31:51;98378.76;;;19.16;54.45
59939;BME280;45801;51.810;19.444;2023-07-20T01:34:22;98388.34;;;19.15;54.48
59939;BME280;45801;51.810;19.444;2023-07-20T01:36:50;98394.58;;;19.10;54.86
59939;BME280;45801;51.810;19.444;2023-07-20T01:39:19;98388.02;;;19.05;55.37
59939;BME280;45801;51.810;19.444;2023-07-20T01:41:47;98394.44;;;19.02;55.52
59939;BME280;45801;51.810;19.444;2023-07-20T01:44:14;98402.79;;;18.97;55.09
59939;BME280;45801;51.810;19.444;2023-07-20T01:46:40;98403.70;;;18.93;55.30
59939;BME280;45801;51.810;19.444;2023-07-20T01:49:06;98405.65;;;18.92;55.58
59939;BME280;45801;51.810;19.444;2023-07-20T01:51:33;98410.98;;;18.93;56.05
59939;BME280;45801;51.810;19.444;2023-07-20T01:53:59;98411.52;;;18.91;57.56
59939;BME280;45801;51.810;19.444;2023-07-20T01:56:26;98414.17;;;18.83;58.62
59939;BME280;45801;51.810;19.444;2023-07-20T01:58:52;98422.36;;;18.72;57.87
59939;BME280;45801;51.810;19.444;2023-07-20T02:01:29;98425.55;;;18.67;57.58
59939;BME280;45801;51.810;19.444;2023-07-20T02:03:55;98431.23;;;18.66;57.89
59939;BME280;45801;51.810;19.444;2023-07-20T02:06:22;98437.63;;;18.65;59.11
59939;BME280;45801;51.810;19.444;2023-07-20T02:08:48;98443.65;;;18.63;60.67
59939;BME280;45801;51.810;19.444;2023-07-20T02:11:15;98443.48;;;18.62;59.96
59939;BME280;45801;51.810;19.444;2023-07-20T02:13:41;98443.84;;;18.61;59.73
59939;BME280;45801;51.810;19.444;2023-07-20T02:16:08;98451.11;;;18.61;60.31
59939;BME280;45801;51.810;19.444;2023-07-20T02:18:34;98453.23;;;18.60;60.34
59939;BME280;45801;51.810;19.444;2023-07-20T02:21:02;98451.48;;;18.59;60.14
59939;BME280;45801;51.810;19.444;2023-07-20T02:23:28;98455.55;;;18.57;60.44
59939;BME280;45801;51.810;19.444;2023-07-20T02:25:55;98456.44;;;18.56;60.69
59939;BME280;45801;51.810;19.444;2023-07-20T02:28:21;98450.42;;;18.54;61.86
59939;BME280;45801;51.810;19.444;2023-07-20T02:30:47;98451.30;;;18.52;62.07
59939;BME280;45801;51.810;19.444;2023-07-20T02:33:15;98454.84;;;18.50;62.29
59939;BME280;45801;51.810;19.444;2023-07-20T02:35:41;98456.62;;;18.47;63.26
59939;BME280;45801;51.810;19.444;2023-07-20T02:38:08;98459.64;;;18.45;62.84
59939;BME280;45801;51.810;19.444;2023-07-20T02:40:34;98464.79;;;18.42;62.63
59939;BME280;45801;51.810;19.444;2023-07-20T02:43:01;98470.28;;;18.39;62.07
59939;BME280;45801;51.810;19.444;2023-07-20T02:45:27;98476.13;;;18.36;62.16
59939;BME280;45801;51.810;19.444;2023-07-20T02:47:53;98480.20;;;18.34;63.28
59939;BME280;45801;51.810;19.444;2023-07-20T02:50:20;98480.38;;;18.33;63.35
59939;BME280;45801;51.810;19.444;2023-07-20T02:52:47;98478.97;;;18.30;63.86
59939;BME280;45801;51.810;19.444;2023-07-20T02:55:13;98483.23;;;18.27;64.50
59939;BME280;45801;51.810;19.444;2023-07-20T02:57:40;98494.21;;;18.23;64.95
59939;BME280;45801;51.810;19.444;2023-07-20T03:00:07;98497.23;;;18.20;65.59
59939;BME280;45801;51.810;19.444;2023-07-20T03:02:33;98498.27;;;18.17;66.44
59939;BME280;45801;51.810;19.444;2023-07-20T03:05:00;98497.91;;;18.14;66.41
59939;BME280;45801;51.810;19.444;2023-07-20T03:07:29;98491.71;;;18.09;66.98
59939;BME280;45801;51.810;19.444;2023-07-20T03:09:56;98485.68;;;18.02;68.36
59939;BME280;45801;51.810;19.444;2023-07-20T03:12:22;98482.48;;;17.96;68.66
59939;BME280;45801;51.810;19.444;2023-07-20T03:14:49;98481.92;;;17.89;68.88
59939;BME280;45801;51.810;19.444;2023-07-20T03:17:15;98487.20;;;17.82;68.88
59939;BME280;45801;51.810;19.444;2023-07-20T03:19:41;98488.42;;;17.76;69.42
59939;BME280;45801;51.810;19.444;2023-07-20T03:22:09;98489.48;;;17.71;69.50
59939;BME280;45801;51.810;19.444;2023-07-20T03:24:35;98491.41;;;17.67;70.92
59939;BME280;45801;51.810;19.444;2023-07-20T03:27:02;98496.02;;;17.66;71.20
59939;BME280;45801;51.810;19.444;2023-07-20T03:29:28;98503.28;;;17.66;70.68
59939;BME280;45801;51.810;19.444;2023-07-20T03:31:55;98511.60;;;17.66;70.56
59939;BME280;45801;51.810;19.444;2023-07-20T03:34:21;98510.17;;;17.63;70.46
59939;BME280;45801;51.810;19.444;2023-07-20T03:36:47;98503.43;;;17.61;70.41
59939;BME280;45801;51.810;19.444;2023-07-20T03:39:14;98497.07;;;17.61;71.02
59939;BME280;45801;51.810;19.444;2023-07-20T03:41:40;98500.44;;;17.64;70.81
59939;BME280;45801;51.810;19.444;2023-07-20T03:44:06;98498.67;;;17.66;70.64
59939;BME280;45801;51.810;19.444;2023-07-20T03:46:33;98499.04;;;17.68;71.16
59939;BME280;45801;51.810;19.444;2023-07-20T03:49:00;98495.48;;;17.68;71.78
59939;BME280;45801;51.810;19.444;2023-07-20T03:51:26;98491.77;;;17.69;72.13
59939;BME280;45801;51.810;19.444;2023-07-20T03:53:53;98489.30;;;17.72;71.27
59939;BME280;45801;51.810;19.444;2023-07-20T03:56:19;98485.95;;;17.76;70.77
59939;BME280;45801;51.810;19.444;2023-07-20T03:58:46;98484.53;;;17.77;69.92
59939;BME280;45801;51.810;19.444;2023-07-20T04:01:12;98489.14;;;17.77;70.09
59939;BME280;45801;51.810;19.444;2023-07-20T04:03:39;98491.09;;;17.76;70.67
59939;BME280;45801;51.810;19.444;2023-07-20T04:06:05;98489.84;;;17.71;71.41
59939;BME280;45801;51.810;19.444;2023-07-20T04:08:32;98490.70;;;17.65;71.76
59939;BME280;45801;51.810;19.444;2023-07-20T04:11:03;98487.33;;;17.61;72.37
59939;BME280;45801;51.810;19.444;2023-07-20T04:13:30;98485.02;;;17.62;72.10
59939;BME280;45801;51.810;19.444;2023-07-20T04:15:59;98483.08;;;17.64;71.66
59939;BME280;45801;51.810;19.444;2023-07-20T04:18:26;98486.11;;;17.66;71.31
59939;BME280;45801;51.810;19.444;2023-07-20T04:20:52;98486.11;;;17.68;71.30
59939;BME280;45801;51.810;19.444;2023-07-20T04:23:19;98489.47;;;17.68;71.97
59939;BME280;45801;51.810;19.444;2023-07-20T04:25:45;98486.63;;;17.65;72.49
59939;BME280;45801;51.810;19.444;2023-07-20T04:28:11;98482.58;;;17.66;71.69
59939;BME280;45801;51.810;19.444;2023-07-20T04:30:39;98483.64;;;17.70;71.15
59939;BME280;45801;51.810;19.444;2023-07-20T04:33:06;98482.93;;;17.72;71.63
59939;BME280;45801;51.810;19.444;2023-07-20T04:35:52;98482.41;;;17.74;71.90
59939;BME280;45801;51.810;19.444;2023-07-20T04:38:20;98483.10;;;17.71;72.70
59939;BME280;45801;51.810;19.444;2023-07-20T04:40:48;98481.84;;;17.64;73.05
59939;BME280;45801;51.810;19.444;2023-07-20T04:43:16;98483.95;;;17.57;73.18
59939;BME280;45801;51.810;19.444;2023-07-20T04:45:43;98481.64;;;17.54;71.91
59939;BME280;45801;51.810;19.444;2023-07-20T04:48:11;98481.27;;;17.50;72.29
59939;BME280;45801;51.810;19.444;2023-07-20T04:50:40;98486.57;;;17.46;73.44
59939;BME280;45801;51.810;19.444;2023-07-20T04:53:06;98487.26;;;17.44;72.38
59939;BME280;45801;51.810;19.444;2023-07-20T04:55:33;98485.32;;;17.43;71.79
59939;BME280;45801;51.810;19.444;2023-07-20T04:58:03;98484.27;;;17.44;72.04
59939;BME280;45801;51.810;19.444;2023-07-20T05:00:32;98484.09;;;17.47;72.02
59939;BME280;45801;51.810;19.444;2023-07-20T05:02:59;98479.85;;;17.49;72.29
59939;BME280;45801;51.810;19.444;2023-07-20T05:05:25;98474.20;;;17.53;72.56
59939;BME280;45801;51.810;19.444;2023-07-20T05:07:52;98470.48;;;17.55;72.61
59939;BME280;45801;51.810;19.444;2023-07-20T05:10:18;98473.30;;;17.54;72.03
59939;BME280;45801;51.810;19.444;2023-07-20T05:12:44;98480.75;;;17.51;72.36
59939;BME280;45801;51.810;19.444;2023-07-20T05:15:11;98489.75;;;17.45;72.04
59939;BME280;45801;51.810;19.444;2023-07-20T05:17:38;98493.48;;;17.46;72.26
59939;BME280;45801;51.810;19.444;2023-07-20T05:20:06;98495.60;;;17.48;72.26
59939;BME280;45801;51.810;19.444;2023-07-20T05:22:32;98494.73;;;17.52;71.91
59939;BME280;45801;51.810;19.444;2023-07-20T05:24:59;98496.88;;;17.60;71.72
59939;BME280;45801;51.810;19.444;2023-07-20T05:27:26;98503.29;;;17.66;71.20
59939;BME280;45801;51.810;19.444;2023-07-20T05:29:52;98504.89;;;17.73;71.17
59939;BME280;45801;51.810;19.444;2023-07-20T05:32:18;98505.09;;;17.78;71.27
59939;BME280;45801;51.810;19.444;2023-07-20T05:35:13;98504.22;;;17.85;70.21
59939;BME280;45801;51.810;19.444;2023-07-20T05:37:40;98506.20;;;17.92;70.07
59939;BME280;45801;51.810;19.444;2023-07-20T05:40:07;98503.23;;;17.98;70.40
59939;BME280;45801;51.810;19.444;2023-07-20T05:42:34;98497.02;;;18.04;71.48
59939;BME280;45801;51.810;19.444;2023-07-20T05:45:00;98497.73;;;18.09;70.62
59939;BME280;45801;51.810;19.444;2023-07-20T05:47:26;98499.16;;;18.12;70.41
59939;BME280;45801;51.810;19.444;2023-07-20T05:49:55;98499.70;;;18.12;70.74
59939;BME280;45801;51.810;19.444;2023-07-20T05:52:21;98495.79;;;18.12;70.79
59939;BME280;45801;51.810;19.444;2023-07-20T05:54:48;98489.94;;;18.12;68.92
59939;BME280;45801;51.810;19.444;2023-07-20T05:57:14;98479.50;;;18.14;69.52
59939;BME280;45801;51.810;19.444;2023-07-20T05:59:40;98476.13;;;18.17;69.36
59939;BME280;45801;51.810;19.444;2023-07-20T06:02:10;98479.14;;;18.19;68.98
59939;BME280;45801;51.810;19.444;2023-07-20T06:04:38;98479.85;;;18.20;68.86
59939;BME280;45801;51.810;19.444;2023-07-20T06:07:06;98472.05;;;18.20;68.37
59939;BME280;45801;51.810;19.444;2023-07-20T06:09:34;98467.98;;;18.21;68.63
59939;BME280;45801;51.810;19.444;2023-07-20T06:12:00;98467.63;;;18.23;67.07
59939;BME280;45801;51.810;19.444;2023-07-20T06:14:27;98465.51;;;18.25;67.62
59939;BME280;45801;51.810;19.444;2023-07-20T06:16:53;98467.45;;;18.29;68.97
59939;BME280;45801;51.810;19.444;2023-07-20T06:19:19;98470.47;;;18.32;69.41
59939;BME280;45801;51.810;19.444;2023-07-20T06:21:46;98468.68;;;18.33;69.81
59939;BME280;45801;51.810;19.444;2023-07-20T06:24:12;98463.19;;;18.35;69.74
59939;BME280;45801;51.810;19.444;2023-07-20T06:26:39;98462.13;;;18.36;69.33
59939;BME280;45801;51.810;19.444;2023-07-20T06:29:06;98473.65;;;18.34;69.47
59939;BME280;45801;51.810;19.444;2023-07-20T06:31:33;98485.17;;;18.29;68.94
59939;BME280;45801;51.810;19.444;2023-07-20T06:34:00;98483.58;;;18.24;68.29
59939;BME280;45801;51.810;19.444;2023-07-20T06:36:27;98479.32;;;18.27;68.22
59939;BME280;45801;51.810;19.444;2023-07-20T06:38:55;98472.93;;;18.49;68.06
59939;BME280;45801;51.810;19.444;2023-07-20T06:41:21;98471.85;;;18.71;67.64
59939;BME280;45801;51.810;19.444;2023-07-20T06:43:48;98476.27;;;18.92;67.29
59939;BME280;45801;51.810;19.444;2023-07-20T06:46:15;98483.16;;;19.04;66.90
59939;BME280;45801;51.810;19.444;2023-07-20T06:48:41;98488.64;;;19.15;66.40
59939;BME280;45801;51.810;19.444;2023-07-20T06:51:08;98496.06;;;19.21;65.14
59939;BME280;45801;51.810;19.444;2023-07-20T06:53:34;98504.77;;;19.20;64.98
59939;BME280;45801;51.810;19.444;2023-07-20T06:56:00;98510.98;;;19.20;65.40
59939;BME280;45801;51.810;19.444;2023-07-20T06:58:28;98516.48;;;19.29;65.56
59939;BME280;45801;51.810;19.444;2023-07-20T07:00:54;98515.71;;;19.40;65.63
59939;BME280;45801;51.810;19.444;2023-07-20T07:03:21;98515.55;;;19.38;65.49
59939;BME280;45801;51.810;19.444;2023-07-20T07:05:48;98514.69;;;19.30;65.57
59939;BME280;45801;51.810;19.444;2023-07-20T07:08:14;98517.20;;;19.21;64.74
59939;BME280;45801;51.810;19.444;2023-07-20T07:10:41;98520.42;;;19.11;64.48
59939;BME280;45801;51.810;19.444;2023-07-20T07:13:07;98528.96;;;19.00;64.71
59939;BME280;45801;51.810;19.444;2023-07-20T07:15:34;98534.84;;;18.91;65.31
59939;BME280;45801;51.810;19.444;2023-07-20T07:18:00;98535.70;;;18.85;65.47
59939;BME280;45801;51.810;19.444;2023-07-20T07:20:27;98532.33;;;18.80;65.55
59939;BME280;45801;51.810;19.444;2023-07-20T07:22:55;98528.25;;;18.77;65.97
59939;BME280;45801;51.810;19.444;2023-07-20T07:25:22;98519.38;;;18.77;66.51
59939;BME280;45801;51.810;19.444;2023-07-20T07:27:52;98515.84;;;18.75;67.30
59939;BME280;45801;51.810;19.444;2023-07-20T07:30:19;98523.12;;;18.66;68.06
59939;BME280;45801;51.810;19.444;2023-07-20T07:32:46;98533.77;;;18.58;67.78
59939;BME280;45801;51.810;19.444;2023-07-20T07:35:12;98541.92;;;18.51;68.11
59939;BME280;45801;51.810;19.444;2023-07-20T07:37:39;98547.23;;;18.46;68.33
59939;BME280;45801;51.810;19.444;2023-07-20T07:40:09;98547.23;;;18.39;68.35
59939;BME280;45801;51.810;19.444;2023-07-20T07:42:36;98552.55;;;18.34;68.94
59939;BME280;45801;51.810;19.444;2023-07-20T07:45:03;98557.86;;;18.26;69.43
59939;BME280;45801;51.810;19.444;2023-07-20T07:47:30;98561.58;;;18.23;69.37
59939;BME280;45801;51.810;19.444;2023-07-20T07:49:57;98561.93;;;18.21;69.56
59939;BME280;45801;51.810;19.444;2023-07-20T07:52:23;98561.21;;;18.20;69.66
59939;BME280;45801;51.810;19.444;2023-07-20T07:54:50;98563.67;;;18.14;70.24
59939;BME280;45801;51.810;19.444;2023-07-20T07:57:16;98567.91;;;18.08;70.16
59939;BME280;45801;51.810;19.444;2023-07-20T07:59:43;98570.95;;;18.10;69.86
59939;BME280;45801;51.810;19.444;2023-07-20T08:02:09;98569.36;;;18.24;68.99
59939;BME280;45801;51.810;19.444;2023-07-20T08:04:36;98570.29;;;18.49;69.55
59939;BME280;45801;51.810;19.444;2023-07-20T08:07:03;98567.27;;;18.69;68.91
59939;BME280;45801;51.810;19.444;2023-07-20T08:09:31;98567.66;;;18.85;67.19
59939;BME280;45801;51.810;19.444;2023-07-20T08:11:57;98569.08;;;18.96;66.86
59939;BME280;45801;51.810;19.444;2023-07-20T08:14:24;98567.83;;;19.09;66.74
59939;BME280;45801;51.810;19.444;2023-07-20T08:16:51;98561.59;;;19.18;65.66
59939;BME280;45801;51.810;19.444;2023-07-20T08:19:18;98561.58;;;19.25;65.78
59939;BME280;45801;51.810;19.444;2023-07-20T08:21:44;98558.36;;;19.32;65.43
59939;BME280;45801;51.810;19.444;2023-07-20T08:24:10;98557.63;;;19.38;65.26
59939;BME280;45801;51.810;19.444;2023-07-20T08:26:37;98560.63;;;19.43;64.08
59939;BME280;45801;51.810;19.444;2023-07-20T08:29:03;98562.95;;;19.39;62.90
59939;BME280;45801;51.810;19.444;2023-07-20T08:31:29;98565.62;;;19.38;63.51
59939;BME280;45801;51.810;19.444;2023-07-20T08:33:56;98559.04;;;19.40;63.26
59939;BME280;45801;51.810;19.444;2023-07-20T08:36:23;98560.10;;;19.43;63.11
59939;BME280;45801;51.810;19.444;2023-07-20T08:38:49;98557.27;;;19.41;61.97
59939;BME280;45801;51.810;19.444;2023-07-20T08:41:16;98554.78;;;19.40;62.88
59939;BME280;45801;51.810;19.444;2023-07-20T08:43:43;98551.04;;;19.44;63.79
59939;BME280;45801;51.810;19.444;2023-07-20T08:46:12;98551.93;;;19.48;64.00
59939;BME280;45801;51.810;19.444;2023-07-20T08:48:40;98555.47;;;19.51;63.74
59939;BME280;45801;51.810;19.444;2023-07-20T08:51:08;98558.30;;;19.53;64.18
59939;BME280;45801;51.810;19.444;2023-07-20T08:53:36;98556.69;;;19.56;63.26
59939;BME280;45801;51.810;19.444;2023-07-20T08:56:04;98555.05;;;19.64;62.79
59939;BME280;45801;51.810;19.444;2023-07-20T08:58:31;98550.42;;;19.70;62.46
59939;BME280;45801;51.810;19.444;2023-07-20T09:00:58;98546.85;;;19.72;61.40
59939;BME280;45801;51.810;19.444;2023-07-20T09:03:26;98548.78;;;19.75;62.02
59939;BME280;45801;51.810;19.444;2023-07-20T09:05:53;98547.91;;;19.81;62.24
59939;BME280;45801;51.810;19.444;2023-07-20T09:08:20;98551.61;;;19.88;61.25
59939;BME280;45801;51.810;19.444;2023-07-20T09:10:46;98549.07;;;19.98;61.21
59939;BME280;45801;51.810;19.444;2023-07-20T09:13:16;98547.77;;;20.06;60.72
59939;BME280;45801;51.810;19.444;2023-07-20T09:15:53;98546.67;;;20.12;60.48
59939;BME280;45801;51.810;19.444;2023-07-20T09:18:25;98548.78;;;20.16;59.98
59939;BME280;45801;51.810;19.444;2023-07-20T09:20:51;98548.23;;;20.17;59.73
59939;BME280;45801;51.810;19.444;2023-07-20T09:23:18;98551.08;;;20.20;59.47
59939;BME280;45801;51.810;19.444;2023-07-20T09:25:47;98548.91;;;20.24;59.05
59939;BME280;45801;51.810;19.444;2023-07-20T09:28:17;98547.64;;;20.28;59.18
59939;BME280;45801;51.810;19.444;2023-07-20T09:30:44;98545.13;;;20.30;59.37
59939;BME280;45801;51.810;19.444;2023-07-20T09:33:18;98543.16;;;20.31;58.63
59939;BME280;45801;51.810;19.444;2023-07-20T09:35:45;98544.77;;;20.31;59.28
59939;BME280;45801;51.810;19.444;2023-07-20T09:38:14;98542.80;;;20.34;58.72
59939;BME280;45801;51.810;19.444;2023-07-20T09:40:41;98541.16;;;20.39;58.49
59939;BME280;45801;51.810;19.444;2023-07-20T09:43:09;98543.07;;;20.44;58.19
59939;BME280;45801;51.810;19.444;2023-07-20T09:45:43;98534.49;;;20.49;57.74
59939;BME280;45801;51.810;19.444;2023-07-20T09:48:10;98534.67;;;20.50;57.05
59939;BME280;45801;51.810;19.444;2023-07-20T09:50:41;98534.84;;;20.50;57.69
59939;BME280;45801;51.810;19.444;2023-07-20T09:53:11;98532.86;;;20.53;57.61
59939;BME280;45801;51.810;19.444;2023-07-20T09:55:40;98531.63;;;20.54;57.97
59939;BME280;45801;51.810;19.444;2023-07-20T09:58:09;98527.34;;;20.55;58.53
59939;BME280;45801;51.810;19.444;2023-07-20T10:00:37;98524.83;;;20.58;58.36
59939;BME280;45801;51.810;19.444;2023-07-20T10:03:05;98523.42;;;20.55;57.28
59939;BME280;45801;51.810;19.444;2023-07-20T10:05:39;98524.34;;;20.51;57.33
59939;BME280;45801;51.810;19.444;2023-07-20T10:08:10;98527.02;;;20.50;58.01
59939;BME280;45801;51.810;19.444;2023-07-20T10:10:38;98522.35;;;20.55;58.24
59939;BME280;45801;51.810;19.444;2023-07-20T10:13:10;98524.96;;;20.64;58.73
59939;BME280;45801;51.810;19.444;2023-07-20T10:15:57;98525.75;;;20.78;57.53
59939;BME280;45801;51.810;19.444;2023-07-20T10:19:11;98517.91;;;20.97;56.75
59939;BME280;45801;51.810;19.444;2023-07-20T10:21:17;98517.82;;;21.06;56.78
59939;BME280;45801;51.810;19.444;2023-07-20T10:23:46;98521.52;;;21.11;56.73
59939;BME280;45801;51.810;19.444;2023-07-20T10:26:13;98518.34;;;21.09;55.69
59939;BME280;45801;51.810;19.444;2023-07-20T10:28:40;98511.64;;;21.02;55.12
59939;BME280;45801;51.810;19.444;2023-07-20T10:31:12;98512.19;;;20.99;55.82
59939;BME280;45801;51.810;19.444;2023-07-20T10:33:39;98507.36;;;21.00;56.18
59939;BME280;45801;51.810;19.444;2023-07-20T10:36:06;98507.40;;;20.98;56.33
59939;BME280;45801;51.810;19.444;2023-07-20T10:38:51;98507.39;;;20.98;56.09
59939;BME280;45801;51.810;19.444;2023-07-20T10:41:20;98507.15;;;21.05;56.64
59939;BME280;45801;51.810;19.444;2023-07-20T10:43:48;98505.71;;;21.07;55.42
59939;BME280;45801;51.810;19.444;2023-07-20T10:46:33;98498.05;;;21.07;56.07
59939;BME280;45801;51.810;19.444;2023-07-20T10:49:05;98498.22;;;21.07;56.49
59939;BME280;45801;51.810;19.444;2023-07-20T10:51:43;98498.23;;;21.06;56.68
59939;BME280;45801;51.810;19.444;2023-07-20T10:56:43;98516.98;;;20.83;55.54
59939;BME280;45801;51.810;19.444;2023-07-20T11:02:06;98519.89;;;20.53;57.44
59939;BME280;45801;51.810;19.444;2023-07-20T11:04:42;98529.36;;;20.45;58.06
59939;BME280;45801;51.810;19.444;2023-07-20T11:07:09;98526.45;;;20.32;58.25
59939;BME280;45801;51.810;19.444;2023-07-20T11:09:37;98527.95;;;20.21;58.73
59939;BME280;45801;51.810;19.444;2023-07-20T11:12:18;98531.55;;;20.13;60.47
59939;BME280;45801;51.810;19.444;2023-07-20T11:14:57;98536.77;;;20.02;62.40
59939;BME280;45801;51.810;19.444;2023-07-20T11:17:31;98538.09;;;19.91;62.23
59939;BME280;45801;51.810;19.444;2023-07-20T11:20:01;98537.23;;;19.82;63.08
59939;BME280;45801;51.810;19.444;2023-07-20T11:22:31;98525.33;;;19.79;63.43
59939;BME280;45801;51.810;19.444;2023-07-20T11:24:58;98517.33;;;19.86;62.59
59939;BME280;45801;51.810;19.444;2023-07-20T11:27:24;98518.69;;;19.94;62.76
59939;BME280;45801;51.810;19.444;2023-07-20T11:29:51;98526.70;;;19.92;62.27
59939;BME280;45801;51.810;19.444;2023-07-20T11:32:21;98531.20;;;19.82;63.14
59939;BME280;45801;51.810;19.444;2023-07-20T11:34:48;98532.10;;;19.73;64.67
59939;BME280;45801;51.810;19.444;2023-07-20T11:37:16;98541.02;;;19.62;65.25
59939;BME280;45801;51.810;19.444;2023-07-20T11:39:43;98542.27;;;19.59;64.74
59939;BME280;45801;51.810;19.444;2023-07-20T11:42:11;98546.36;;;19.62;65.31
59939;BME280;45801;51.810;19.444;2023-07-20T11:44:38;98547.77;;;19.67;64.86
59939;BME280;45801;51.810;19.444;2023-07-20T11:47:09;98547.02;;;19.78;64.92
59939;BME280;45801;51.810;19.444;2023-07-20T11:49:38;98544.52;;;19.87;65.21
59939;BME280;45801;51.810;19.444;2023-07-20T11:52:06;98545.89;;;19.94;65.28
59939;BME280;45801;51.810;19.444;2023-07-20T11:54:34;98539.63;;;20.02;65.83
59939;BME280;45801;51.810;19.444;2023-07-20T11:57:01;98533.91;;;20.06;65.94
59939;BME280;45801;51.810;19.444;2023-07-20T11:59:28;98535.13;;;20.10;66.15
59939;BME280;45801;51.810;19.444;2023-07-20T12:01:55;98538.30;;;20.15;66.45
59939;BME280;45801;51.810;19.444;2023-07-20T12:04:25;98541.45;;;20.22;66.32
59939;BME280;45801;51.810;19.444;2023-07-20T12:06:53;98543.33;;;20.33;66.63
59939;BME280;45801;51.810;19.444;2023-07-20T12:09:21;98539.52;;;20.43;66.84
59939;BME280;45801;51.810;19.444;2023-07-20T12:11:49;98538.55;;;20.55;67.28
59939;BME280;45801;51.810;19.444;2023-07-20T12:14:17;98537.25;;;20.63;68.01
59939;BME280;45801;51.810;19.444;2023-07-20T12:16:43;98535.52;;;20.79;70.27
59939;BME280;45801;51.810;19.444;2023-07-20T12:19:13;98538.59;;;20.94;70.37
59939;BME280;45801;51.810;19.444;2023-07-20T12:21:41;98539.69;;;21.10;67.42
59939;BME280;45801;51.810;19.444;2023-07-20T12:24:10;98536.33;;;21.24;66.39
59939;BME280;45801;51.810;19.444;2023-07-20T12:26:37;98537.83;;;21.33;66.52
59939;BME280;45801;51.810;19.444;2023-07-20T12:29:04;98540.26;;;21.39;66.27
59939;BME280;45801;51.810;19.444;2023-07-20T12:31:30;98548.77;;;21.43;66.67
59939;BME280;45801;51.810;19.444;2023-07-20T12:33:58;98546.44;;;21.44;66.08
59939;BME280;45801;51.810;19.444;2023-07-20T12:36:24;98538.95;;;21.45;66.24
59939;BME280;45801;51.810;19.444;2023-07-20T12:38:51;98539.66;;;21.43;65.46
59939;BME280;45801;51.810;19.444;2023-07-20T12:41:17;98541.49;;;21.40;65.69
59939;BME280;45801;51.810;19.444;2023-07-20T12:43:45;98538.88;;;21.35;66.90
59939;BME280;45801;51.810;19.444;2023-07-20T12:46:13;98535.71;;;21.31;66.92
59939;BME280;45801;51.810;19.444;2023-07-20T12:48:40;98530.73;;;21.31;66.80
59939;BME280;45801;51.810;19.444;2023-07-20T12:51:09;98531.45;;;21.30;66.50
59939;BME280;45801;51.810;19.444;2023-07-20T12:53:36;98542.60;;;21.20;66.93
59939;BME280;45801;51.810;19.444;2023-07-20T12:56:02;98573.27;;;20.98;67.55
59939;BME280;45801;51.810;19.444;2023-07-20T12:58:29;98612.52;;;20.64;67.07
59939;BME280;45801;51.810;19.444;2023-07-20T13:00:56;98619.83;;;20.29;66.18